Time;durP1;ratioP1;P1;durP2;ratioP2;P2;SDS_P1;SDS_P2;PMS_P1;PMS_P2;Temp;Humidity;BMP_temperature;BMP_pressure;BME280_temperature;BME280_humidity;BME280_pressure;Samples;Min_cycle;Max_cycle;Signal;HPM_P1;HPM_P2
2021/07/29 00:00:36;;;;;;;5.75;1.45;;;18.20;99.90;;;;;;5052758;28;20186;-78
2021/07/29 00:03:02;;;;;;;5.55;1.55;;;18.20;99.90;;;;;;5034725;28;20211;-77
2021/07/29 00:05:29;;;;;;;5.05;1.38;;;18.10;99.90;;;;;;5052494;28;20187;-78
2021/07/29 00:07:55;;;;;;;4.57;1.25;;;18.10;99.90;;;;;;5052410;28;20266;-78
2021/07/29 00:10:21;;;;;;;4.68;1.45;;;18.10;99.90;;;;;;5052959;28;20238;-78
2021/07/29 00:12:47;;;;;;;10.13;1.52;;;17.90;99.90;;;;;;5052454;28;20172;-78
2021/07/29 00:15:16;;;;;;;3.67;1.20;;;17.90;99.90;;;;;;5052537;28;20194;-78
2021/07/29 00:20:20;;;;;;;3.13;1.70;;;17.80;99.90;;;;;;5052632;28;20163;-78
2021/07/29 00:22:54;;;;;;;9.32;1.85;;;17.80;99.90;;;;;;5034681;28;20206;-78
2021/07/29 00:25:21;;;;;;;8.90;1.52;;;17.70;99.90;;;;;;5052513;28;20193;-78
2021/07/29 00:27:47;;;;;;;3.03;1.50;;;17.80;99.90;;;;;;5034019;28;20649;-78
2021/07/29 00:30:14;;;;;;;5.55;1.77;;;17.80;99.90;;;;;;5052013;28;20790;-78
2021/07/29 00:32:41;;;;;;;6.13;1.33;;;17.80;99.90;;;;;;5052191;28;20169;-78
2021/07/29 00:35:15;;;;;;;2.53;1.60;;;17.70;99.90;;;;;;5051955;28;20191;-78
2021/07/29 00:37:48;;;;;;;5.15;1.52;;;17.50;99.90;;;;;;5051945;28;20236;-78
2021/07/29 00:40:14;;;;;;;5.97;1.65;;;17.50;99.90;;;;;;5052124;28;20687;-77
2021/07/29 00:42:40;;;;;;;8.10;1.88;;;17.50;99.90;;;;;;5052330;28;20230;-78
2021/07/29 00:45:06;;;;;;;5.90;1.83;;;17.50;99.90;;;;;;5034296;28;20229;-78
2021/07/29 00:47:32;;;;;;;3.53;1.63;;;17.50;99.90;;;;;;5052019;28;20170;-78
2021/07/29 00:49:58;;;;;;;2.22;1.48;;;17.40;99.90;;;;;;5052244;28;20678;-78
2021/07/29 00:52:24;;;;;;;7.30;1.52;;;17.50;99.90;;;;;;5052095;28;20259;-77
2021/07/29 00:54:51;;;;;;;2.28;1.48;;;17.50;99.90;;;;;;5052147;28;20187;-79
2021/07/29 00:57:18;;;;;;;5.65;2.45;;;17.50;99.90;;;;;;5052209;28;20221;-78
2021/07/29 00:59:43;;;;;;;13.77;1.63;;;17.50;99.90;;;;;;5051958;28;20179;-77
2021/07/29 01:02:09;;;;;;;9.95;1.83;;;17.50;99.90;;;;;;5051767;28;20246;-78
2021/07/29 01:04:35;;;;;;;2.28;1.60;;;17.60;99.90;;;;;;5051821;28;20175;-78
2021/07/29 01:07:01;;;;;;;4.60;1.17;;;17.60;99.90;;;;;;5033896;28;20171;-78
2021/07/29 01:09:28;;;;;;;2.55;1.30;;;17.60;99.90;;;;;;5052015;28;20167;-78
2021/07/29 01:11:53;;;;;;;5.50;1.83;;;17.70;99.90;;;;;;5051529;28;20163;-78
2021/07/29 01:14:19;;;;;;;13.32;2.00;;;17.70;99.90;;;;;;5051827;28;20175;-78
2021/07/29 01:16:45;;;;;;;5.90;1.73;;;17.60;99.90;;;;;;5051700;28;20608;-78
2021/07/29 01:19:12;;;;;;;8.52;1.80;;;17.50;99.90;;;;;;5051606;28;20529;-78
2021/07/29 01:21:38;;;;;;;7.97;1.77;;;17.40;99.90;;;;;;5051709;28;20171;-78
2021/07/29 01:24:04;;;;;;;4.15;1.25;;;17.40;99.90;;;;;;5051533;28;20210;-78
2021/07/29 01:26:30;;;;;;;2.67;1.20;;;17.50;99.90;;;;;;5033755;28;20195;-77
2021/07/29 01:28:57;;;;;;;10.95;2.28;;;17.40;99.90;;;;;;5033577;28;20554;-78
2021/07/29 01:31:23;;;;;;;5.63;1.58;;;17.30;99.90;;;;;;5051700;28;20164;-78
2021/07/29 01:33:50;;;;;;;2.47;1.05;;;17.20;99.90;;;;;;5051806;28;20627;-80
2021/07/29 01:36:15;;;;;;;2.70;1.55;;;17.30;99.90;;;;;;5051184;28;20544;-78
2021/07/29 01:38:41;;;;;;;8.50;1.58;;;17.30;99.90;;;;;;5053044;28;20167;-78
2021/07/29 01:41:07;;;;;;;5.28;1.77;;;17.40;99.90;;;;;;5037647;28;20171;-78
2021/07/29 01:43:33;;;;;;;6.50;1.38;;;17.40;99.90;;;;;;5055498;28;20234;-78
2021/07/29 01:45:59;;;;;;;4.80;1.60;;;17.30;99.90;;;;;;5055637;28;20179;-78
2021/07/29 01:48:26;;;;;;;3.22;1.63;;;17.30;99.90;;;;;;5055059;28;20167;-78
2021/07/29 01:50:52;;;;;;;8.73;1.58;;;17.30;99.90;;;;;;5055190;28;20170;-78
2021/07/29 01:53:18;;;;;;;4.00;1.65;;;17.30;99.90;;;;;;5055445;28;20639;-79
2021/07/29 01:55:44;;;;;;;6.78;1.67;;;17.30;99.90;;;;;;5055127;28;20244;-79
2021/07/29 01:58:11;;;;;;;7.80;1.52;;;17.50;99.90;;;;;;5054629;28;20246;-78
2021/07/29 02:00:38;;;;;;;3.58;1.42;;;17.40;99.90;;;;;;5054949;28;20168;-79
2021/07/29 02:03:04;;;;;;;1.50;1.10;;;17.30;99.90;;;;;;5036754;28;20213;-79
2021/07/29 02:05:30;;;;;;;10.30;1.95;;;17.10;99.90;;;;;;5055243;28;20258;-81
2021/07/29 02:08:00;;;;;;;3.30;1.48;;;17.00;99.90;;;;;;5055180;28;20704;-85
2021/07/29 02:10:26;;;;;;;4.75;1.48;;;17.00;99.90;;;;;;5054863;28;20162;-78
2021/07/29 02:12:53;;;;;;;7.88;2.00;;;17.10;99.90;;;;;;5054664;28;20673;-78
2021/07/29 02:15:19;;;;;;;2.28;1.52;;;17.10;99.90;;;;;;5054355;28;20696;-78
2021/07/29 02:17:44;;;;;;;4.65;1.65;;;17.10;99.90;;;;;;5036712;28;20159;-78
2021/07/29 02:20:11;;;;;;;3.33;1.40;;;17.20;99.90;;;;;;5054741;28;20199;-78
2021/07/29 02:22:36;;;;;;;5.72;1.35;;;17.30;99.90;;;;;;5054474;28;20191;-78
2021/07/29 02:25:04;;;;;;;3.22;1.10;;;17.20;99.90;;;;;;5054379;28;20191;-78
2021/07/29 02:27:30;;;;;;;8.32;1.63;;;17.20;99.90;;;;;;5054311;28;20571;-78
2021/07/29 02:29:57;;;;;;;5.28;1.38;;;17.30;99.90;;;;;;5054594;28;20175;-78
2021/07/29 02:32:23;;;;;;;15.13;2.05;;;17.30;99.90;;;;;;5054426;28;20635;-84
2021/07/29 02:34:48;;;;;;;6.65;1.45;;;17.30;99.90;;;;;;5054489;28;20219;-85
2021/07/29 02:37:14;;;;;;;2.03;1.42;;;17.30;99.90;;;;;;5054650;28;20596;-89
2021/07/29 02:39:41;;;;;;;4.63;1.10;;;17.20;99.90;;;;;;5036737;28;20198;-90
2021/07/29 02:42:09;;;;;;;5.85;1.33;;;17.00;99.90;;;;;;5054465;28;20185;-79
2021/07/29 02:44:35;;;;;;;4.40;1.80;;;17.00;99.90;;;;;;5054301;28;20183;-77
2021/07/29 02:47:02;;;;;;;2.15;1.23;;;17.00;99.90;;;;;;5054002;28;20179;-78
2021/07/29 02:49:27;;;;;;;3.88;1.50;;;16.90;99.90;;;;;;5054343;28;20171;-78
2021/07/29 02:51:53;;;;;;;5.05;1.58;;;16.90;99.90;;;;;;5054506;28;20171;-78
2021/07/29 02:54:19;;;;;;;7.60;1.83;;;16.90;99.90;;;;;;5054166;28;20488;-79
2021/07/29 02:56:45;;;;;;;6.68;2.08;;;16.90;99.90;;;;;;5054253;28;20190;-79
2021/07/29 02:59:10;;;;;;;4.93;1.70;;;16.80;99.90;;;;;;5036605;28;20178;-79
2021/07/29 03:01:36;;;;;;;6.72;1.40;;;16.80;99.90;;;;;;5054303;28;20554;-78
2021/07/29 03:04:02;;;;;;;8.32;1.70;;;16.70;99.90;;;;;;5054043;28;20211;-78
2021/07/29 03:06:27;;;;;;;6.25;1.63;;;16.60;99.90;;;;;;5054091;28;20268;-79
2021/07/29 03:08:54;;;;;;;3.58;1.90;;;16.70;99.90;;;;;;5053885;28;20901;-78
2021/07/29 03:11:20;;;;;;;4.82;1.42;;;16.70;99.90;;;;;;5053841;28;20309;-78
2021/07/29 03:13:46;;;;;;;5.95;1.88;;;16.60;99.90;;;;;;5054110;28;20184;-85
2021/07/29 03:16:11;;;;;;;1.77;1.52;;;16.60;99.90;;;;;;5054150;28;20203;-86
2021/07/29 03:18:37;;;;;;;4.90;1.60;;;16.50;99.90;;;;;;5053907;28;20171;-83
2021/07/29 03:21:06;;;;;;;9.45;1.50;;;16.60;99.90;;;;;;5053877;28;20243;-79
2021/07/29 03:23:31;;;;;;;6.70;1.88;;;16.60;99.90;;;;;;5053765;28;20766;-78
2021/07/29 03:25:57;;;;;;;8.27;1.63;;;16.50;99.90;;;;;;5035821;28;20274;-78
2021/07/29 03:28:23;;;;;;;9.02;2.03;;;16.50;99.90;;;;;;5053432;28;20266;-78
2021/07/29 03:30:50;;;;;;;8.15;1.77;;;16.40;99.90;;;;;;5035552;28;20175;-79
2021/07/29 03:33:16;;;;;;;3.03;1.88;;;16.30;99.90;;;;;;5053459;28;20171;-78
2021/07/29 03:35:41;;;;;;;6.50;1.60;;;16.30;99.90;;;;;;5053174;28;20263;-78
2021/07/29 03:38:08;;;;;;;9.38;2.13;;;16.40;99.90;;;;;;5053609;28;20205;-78
2021/07/29 03:40:35;;;;;;;6.20;1.20;;;16.30;99.90;;;;;;5053699;28;20175;-78
2021/07/29 03:43:04;;;;;;;13.18;2.85;;;16.40;99.90;;;;;;5035136;28;20211;-78
2021/07/29 03:45:31;;;;;;;5.70;1.75;;;16.40;99.90;;;;;;5035077;28;20183;-86
2021/07/29 03:47:58;;;;;;;13.07;1.65;;;16.30;99.90;;;;;;5052856;28;20162;-84
2021/07/29 03:50:24;;;;;;;4.35;1.65;;;16.30;99.90;;;;;;5053258;28;20675;-78
2021/07/29 03:52:49;;;;;;;4.95;2.00;;;16.40;99.90;;;;;;5053091;28;20199;-78
2021/07/29 03:55:15;;;;;;;2.92;1.42;;;16.30;99.90;;;;;;5053002;28;20207;-78
2021/07/29 03:57:41;;;;;;;3.15;1.70;;;16.10;99.90;;;;;;5054158;28;20673;-78
2021/07/29 04:00:07;;;;;;;4.15;1.92;;;16.20;99.90;;;;;;5053372;28;20168;-79
2021/07/29 04:02:34;;;;;;;3.80;1.27;;;16.20;99.90;;;;;;5052599;28;20286;-78
2021/07/29 04:05:00;;;;;;;10.73;1.95;;;16.10;99.90;;;;;;5053053;28;20190;-78
2021/07/29 04:07:26;;;;;;;4.00;1.30;;;16.10;99.90;;;;;;5035478;28;20175;-78
2021/07/29 04:09:52;;;;;;;9.30;1.83;;;16.20;99.90;;;;;;5053151;28;20508;-78
2021/07/29 04:12:18;;;;;;;12.98;1.63;;;16.10;99.90;;;;;;5053094;28;20209;-78
2021/07/29 04:14:44;;;;;;;8.02;1.65;;;16.20;99.90;;;;;;5052585;28;20193;-79
2021/07/29 04:17:10;;;;;;;8.80;1.80;;;16.20;99.90;;;;;;5077123;28;20160;-79
2021/07/29 04:19:36;;;;;;;2.97;1.55;;;16.20;99.90;;;;;;5057165;28;20217;-78
2021/07/29 04:22:04;;;;;;;7.30;1.48;;;16.10;99.90;;;;;;5053449;28;20230;-79
2021/07/29 04:24:30;;;;;;;9.90;1.60;;;16.10;99.90;;;;;;5062772;28;20222;-79
2021/07/29 04:27:00;;;;;;;8.00;1.35;;;16.20;99.90;;;;;;5060142;28;20551;-80
2021/07/29 04:29:26;;;;;;;9.68;1.75;;;16.10;99.90;;;;;;5052459;28;20267;-85
2021/07/29 04:31:53;;;;;;;7.78;2.38;;;16.00;99.90;;;;;;5052537;28;20174;-79
2021/07/29 04:34:19;;;;;;;5.60;1.40;;;16.00;99.90;;;;;;5052101;28;20175;-78
2021/07/29 04:36:45;;;;;;;11.30;2.42;;;16.10;99.90;;;;;;5052438;28;20190;-79
2021/07/29 04:39:11;;;;;;;5.70;1.73;;;16.10;99.90;;;;;;5052360;28;20217;-78
2021/07/29 04:41:41;;;;;;;7.43;1.60;;;16.10;99.90;;;;;;5044630;28;20154;-79
2021/07/29 04:44:08;;;;;;;4.97;1.40;;;16.10;99.90;;;;;;5074162;28;20217;-81
2021/07/29 04:46:37;;;;;;;8.02;1.63;;;16.10;99.90;;;;;;5068897;28;20191;-79
2021/07/29 04:49:05;;;;;;;4.40;1.63;;;16.10;99.90;;;;;;5059712;28;20648;-78
2021/07/29 04:51:33;;;;;;;5.07;2.45;;;15.90;99.90;;;;;;5060246;28;20157;-79
2021/07/29 04:53:58;;;;;;;9.43;1.75;;;15.90;99.90;;;;;;5074413;28;20181;-78
2021/07/29 04:56:24;;;;;;;10.45;2.13;;;16.10;99.90;;;;;;5066977;28;20232;-78
2021/07/29 04:58:50;;;;;;;5.53;1.63;;;16.30;99.90;;;;;;5052184;28;20163;-78
2021/07/29 05:01:17;;;;;;;4.05;1.83;;;16.30;99.90;;;;;;5052316;28;20175;-78
2021/07/29 05:03:43;;;;;;;7.38;1.50;;;16.20;99.90;;;;;;5052205;28;20298;-79
2021/07/29 05:06:08;;;;;;;2.15;1.52;;;16.30;99.90;;;;;;5052011;28;20325;-78
2021/07/29 05:08:35;;;;;;;10.32;2.45;;;16.30;99.90;;;;;;5052161;28;20175;-78
2021/07/29 05:11:03;;;;;;;5.60;1.45;;;16.30;99.90;;;;;;5052096;28;20240;-77
2021/07/29 05:13:29;;;;;;;10.65;1.75;;;16.40;99.90;;;;;;5037005;28;20171;-78
2021/07/29 05:15:55;;;;;;;5.97;2.25;;;16.60;99.90;;;;;;5055735;28;20193;-77
2021/07/29 05:18:20;;;;;;;3.78;1.58;;;16.50;99.90;;;;;;5055701;28;20172;-78
2021/07/29 05:20:46;;;;;;;7.78;1.70;;;16.40;99.90;;;;;;5055326;28;20167;-78
2021/07/29 05:23:12;;;;;;;7.18;1.67;;;16.40;99.90;;;;;;5055313;28;20257;-78
2021/07/29 05:25:38;;;;;;;7.25;2.05;;;16.50;99.90;;;;;;5055647;28;20631;-78
2021/07/29 05:28:04;;;;;;;6.85;1.42;;;16.60;99.90;;;;;;5055451;28;20207;-77
2021/07/29 05:30:30;;;;;;;6.22;1.92;;;16.70;99.90;;;;;;5055384;28;20246;-79
2021/07/29 05:32:56;;;;;;;5.07;1.90;;;16.90;99.90;;;;;;5055438;28;20167;-78
2021/07/29 05:35:22;;;;;;;5.13;1.55;;;16.80;99.90;;;;;;5055346;28;20190;-78
2021/07/29 05:37:47;;;;;;;6.72;1.52;;;16.80;99.90;;;;;;5055189;28;20229;-78
2021/07/29 05:40:13;;;;;;;3.88;1.80;;;16.90;99.90;;;;;;5056344;28;20635;-79
2021/07/29 05:42:38;;;;;;;10.20;1.60;;;17.00;99.90;;;;;;5055163;28;20282;-81
2021/07/29 05:45:05;;;;;;;7.78;1.83;;;16.90;99.90;;;;;;5037335;28;20287;-79
2021/07/29 05:47:30;;;;;;;5.22;2.00;;;16.80;99.90;;;;;;5037915;28;20171;-78
2021/07/29 05:49:56;;;;;;;7.28;1.80;;;16.80;99.90;;;;;;5055176;28;20190;-79
2021/07/29 05:52:21;;;;;;;6.57;1.60;;;16.90;99.90;;;;;;5054826;28;20190;-78
2021/07/29 05:54:47;;;;;;;10.15;1.55;;;16.80;99.90;;;;;;5036574;28;20713;-79
2021/07/29 05:57:13;;;;;;;6.15;1.80;;;16.90;99.90;;;;;;5054898;28;20175;-79
2021/07/29 05:59:38;;;;;;;5.38;1.50;;;17.10;99.90;;;;;;5054942;28;20170;-79
2021/07/29 06:02:04;;;;;;;11.15;1.55;;;17.20;99.90;;;;;;5054886;28;20174;-78
2021/07/29 06:04:30;;;;;;;5.30;1.85;;;17.20;99.90;;;;;;5054336;28;20273;-79
2021/07/29 06:06:55;;;;;;;5.20;1.60;;;17.30;99.90;;;;;;5054675;28;20627;-79
2021/07/29 06:09:21;;;;;;;7.38;1.73;;;17.40;99.90;;;;;;5054861;28;20203;-78
2021/07/29 06:11:47;;;;;;;6.40;1.67;;;17.50;99.90;;;;;;5036875;28;20254;-78
2021/07/29 06:14:12;;;;;;;4.40;1.50;;;17.50;99.90;;;;;;5036714;28;20175;-80
2021/07/29 06:16:38;;;;;;;11.20;2.03;;;17.40;99.90;;;;;;5054212;28;20187;-79
2021/07/29 06:19:09;;;;;;;6.90;1.98;;;17.10;99.90;;;;;;5036717;28;20178;-79
2021/07/29 06:21:36;;;;;;;4.22;1.73;;;17.10;99.90;;;;;;5054294;28;20560;-79
2021/07/29 06:24:03;;;;;;;4.93;1.67;;;17.20;99.90;;;;;;5053848;28;20195;-79
2021/07/29 06:26:29;;;;;;;2.97;1.13;;;17.30;99.90;;;;;;5053989;28;20203;-78
2021/07/29 06:28:54;;;;;;;6.45;1.92;;;17.40;99.90;;;;;;5036277;28;20273;-80
2021/07/29 06:31:20;;;;;;;11.68;1.80;;;17.40;99.90;;;;;;5035844;28;20703;-80
2021/07/29 06:33:46;;;;;;;6.45;1.40;;;17.50;99.90;;;;;;5036268;28;20183;-79
2021/07/29 06:36:12;;;;;;;6.07;1.48;;;17.50;99.90;;;;;;5054020;28;20184;-79
2021/07/29 06:38:38;;;;;;;6.10;1.70;;;17.60;99.90;;;;;;5053997;28;20253;-79
2021/07/29 06:41:05;;;;;;;8.02;1.45;;;17.50;99.90;;;;;;5053946;28;20208;-79
2021/07/29 06:43:31;;;;;;;5.07;1.88;;;17.70;99.90;;;;;;5053615;28;20206;-80
2021/07/29 06:46:05;;;;;;;12.23;2.20;;;17.70;99.90;;;;;;5053915;28;20548;-79
2021/07/29 06:48:31;;;;;;;10.70;1.63;;;17.90;99.90;;;;;;5053608;28;20293;-79
2021/07/29 06:51:04;;;;;;;5.85;1.50;;;17.90;99.90;;;;;;5035997;28;20167;-79
2021/07/29 06:53:31;;;;;;;6.30;1.48;;;18.00;99.90;;;;;;5053565;28;20167;-80
2021/07/29 06:55:59;;;;;;;12.13;1.98;;;18.10;99.90;;;;;;5035468;28;20179;-82
2021/07/29 06:58:24;;;;;;;8.20;1.90;;;18.20;99.90;;;;;;5053366;28;20170;-80
2021/07/29 07:00:50;;;;;;;2.33;1.52;;;18.00;99.90;;;;;;5053658;28;20159;-83
2021/07/29 07:03:16;;;;;;;5.57;1.73;;;18.00;99.90;;;;;;5053338;28;20675;-79
2021/07/29 07:05:45;;;;;;;6.50;1.92;;;18.20;99.90;;;;;;5054031;28;20187;-81
2021/07/29 07:08:15;;;;;;;9.30;1.58;;;18.30;99.90;;;;;;5035913;28;20224;-81
2021/07/29 07:10:41;;;;;;;9.82;2.03;;;18.40;99.90;;;;;;5035056;28;20171;-82
2021/07/29 07:13:07;;;;;;;12.98;2.38;;;18.70;99.90;;;;;;5035430;28;20258;-81
2021/07/29 07:15:33;;;;;;;8.27;1.95;;;18.70;99.90;;;;;;5035866;28;20604;-82
2021/07/29 07:17:59;;;;;;;9.23;1.88;;;18.80;99.90;;;;;;5035912;28;20163;-82
2021/07/29 07:20:24;;;;;;;8.00;1.73;;;19.40;99.90;;;;;;5035308;28;20190;-82
2021/07/29 07:22:51;;;;;;;5.95;1.60;;;19.40;99.90;;;;;;5034256;28;20713;-81
2021/07/29 07:25:17;;;;;;;4.70;1.70;;;19.50;99.90;;;;;;5035569;28;20187;-82
2021/07/29 07:27:43;;;;;;;13.80;2.45;;;20.00;99.90;;;;;;5037120;28;20166;-89
2021/07/29 07:30:09;;;;;;;4.07;1.52;;;20.30;99.90;;;;;;5037709;28;20171;-89
2021/07/29 07:32:35;;;;;;;3.92;2.13;;;20.30;99.90;;;;;;5054955;28;20236;-89
2021/07/29 07:35:03;;;;;;;4.70;1.92;;;20.20;99.90;;;;;;5037215;28;20233;-89
2021/07/29 07:37:28;;;;;;;8.82;2.03;;;20.00;99.90;;;;;;5037039;28;20261;-89
2021/07/29 07:39:54;;;;;;;9.63;1.77;;;20.30;99.90;;;;;;5037391;28;20240;-88
2021/07/29 07:42:19;;;;;;;13.15;1.95;;;20.90;99.90;;;;;;5037383;28;20171;-89
2021/07/29 07:44:45;;;;;;;8.70;2.10;;;21.10;99.90;;;;;;5054875;28;20194;-90
2021/07/29 07:47:11;;;;;;;5.47;1.58;;;21.50;99.90;;;;;;5054778;28;20163;-87
2021/07/29 07:49:38;;;;;;;4.68;1.67;;;21.90;99.90;;;;;;5055130;28;20179;-90
2021/07/29 07:52:08;;;;;;;7.47;2.00;;;21.50;99.90;;;;;;5036947;28;20262;-88
2021/07/29 07:54:35;;;;;;;6.72;2.03;;;21.30;99.90;;;;;;5037244;28;20583;-86
2021/07/29 07:57:00;;;;;;;4.78;1.85;;;20.70;99.90;;;;;;5036787;28;20167;-88
2021/07/29 07:59:26;;;;;;;4.28;1.70;;;20.20;99.90;;;;;;5037467;28;20174;-90
2021/07/29 08:01:51;;;;;;;10.18;1.67;;;20.20;99.90;;;;;;5037341;28;20171;-92
2021/07/29 08:04:18;;;;;;;10.43;2.47;;;20.10;99.90;;;;;;5037250;28;20722;-89
2021/07/29 08:06:43;;;;;;;8.63;1.55;;;20.20;99.90;;;;;;5037083;28;20284;-89
2021/07/29 08:09:09;;;;;;;4.65;1.67;;;20.60;99.90;;;;;;5036853;28;20167;-89
2021/07/29 08:11:34;;;;;;;6.38;1.70;;;20.90;99.90;;;;;;5036781;28;20645;-88
2021/07/29 08:14:00;;;;;;;9.02;2.25;;;21.10;99.90;;;;;;5036801;28;20179;-88
2021/07/29 08:16:26;;;;;;;6.35;1.52;;;21.20;99.90;;;;;;5053961;28;20198;-89
2021/07/29 08:21:17;;;;;;;9.10;2.22;;;21.30;99.90;;;;;;5020687;28;20197;-89
2021/07/29 08:23:43;;;;;;;6.47;1.83;;;21.10;99.90;;;;;;5037020;28;20202;-89
2021/07/29 08:26:11;;;;;;;7.03;1.92;;;21.00;99.90;;;;;;5036472;28;20187;-89
2021/07/29 08:28:40;;;;;;;12.27;1.70;;;21.10;99.90;;;;;;5054990;28;20193;-89
2021/07/29 08:31:10;;;;;;;8.48;1.38;;;21.30;99.90;;;;;;5037220;28;20167;-89
2021/07/29 08:33:36;;;;;;;4.40;1.65;;;21.40;99.90;;;;;;5037348;28;20167;-83
2021/07/29 08:36:02;;;;;;;5.07;1.98;;;21.30;99.90;;;;;;5052532;28;20531;-84
2021/07/29 08:38:28;;;;;;;4.35;1.23;;;21.60;99.90;;;;;;5052700;28;20167;-84
2021/07/29 08:40:54;;;;;;;7.15;1.45;;;21.60;99.90;;;;;;5034716;28;20700;-84
2021/07/29 08:43:21;;;;;;;8.77;1.73;;;21.60;99.90;;;;;;5034412;28;20272;-84
2021/07/29 08:45:50;;;;;;;6.55;1.73;;;21.30;99.90;;;;;;5053026;28;20175;-90
2021/07/29 08:48:30;;;;;;;3.92;1.20;;;21.60;99.90;;;;;;5040511;28;20174;-92
2021/07/29 08:50:56;;;;;;;5.38;1.55;;;21.80;99.90;;;;;;5048315;28;20167;-92
2021/07/29 08:53:22;;;;;;;8.52;1.75;;;21.80;99.90;;;;;;5043585;28;20167;-90
2021/07/29 08:55:56;;;;;;;6.63;1.65;;;21.60;99.90;;;;;;5043541;28;20190;-94
2021/07/29 08:58:22;;;;;;;27.17;2.90;;;21.40;99.90;;;;;;5043633;28;20163;-94
2021/07/29 09:01:01;;;;;;;6.25;1.88;;;21.10;99.90;;;;;;5044445;28;20177;-94
2021/07/29 09:03:27;;;;;;;2.75;1.35;;;20.80;99.90;;;;;;5044241;28;20213;-94
2021/07/29 09:06:19;;;;;;;4.15;1.60;;;20.70;99.90;;;;;;5044125;28;20605;-96
2021/07/29 09:08:48;;;;;;;6.05;1.58;;;20.80;99.90;;;;;;5040863;28;20178;-94
2021/07/29 09:11:30;;;;;;;10.75;1.52;;;20.90;99.90;;;;;;5040267;28;20183;-95
2021/07/29 09:14:13;;;;;;;2.85;1.55;;;21.00;99.90;;;;;;5024103;28;20726;-95
2021/07/29 09:17:05;;;;;;;4.78;1.48;;;21.00;99.90;;;;;;5023252;28;20188;-95
2021/07/29 09:19:45;;;;;;;3.70;1.30;;;21.20;99.90;;;;;;5023454;28;20560;-94
2021/07/29 09:22:22;;;;;;;9.30;1.75;;;21.40;99.90;;;;;;5023045;28;20266;-95
2021/07/29 09:25:12;;;;;;;6.80;1.60;;;21.40;99.90;;;;;;5023238;28;20641;-96
2021/07/29 09:27:37;;;;;;;5.32;1.45;;;21.40;99.90;;;;;;5022751;28;20186;-96
2021/07/29 09:30:26;;;;;;;2.47;1.13;;;21.60;99.90;;;;;;5023697;28;20183;-96
2021/07/29 09:33:10;;;;;;;6.88;1.50;;;21.60;99.90;;;;;;5025185;28;20176;-96
2021/07/29 09:35:45;;;;;;;14.95;1.90;;;21.50;99.90;;;;;;5032153;28;20208;-95
2021/07/29 09:38:18;;;;;;;4.00;1.63;;;21.50;99.90;;;;;;5046835;28;20619;-94
2021/07/29 09:40:59;;;;;;;15.57;4.65;;;21.60;99.90;;;;;;5060021;28;20186;-94
2021/07/29 09:43:38;;;;;;;12.77;4.60;;;22.10;99.90;;;;;;5059908;28;20194;-94
2021/07/29 09:46:19;;;;;;;12.25;2.80;;;22.00;99.90;;;;;;5049779;28;20197;-94
2021/07/29 09:48:45;;;;;;;13.40;4.85;;;21.90;99.90;;;;;;5042633;28;20198;-94
2021/07/29 09:51:12;;;;;;;9.32;1.98;;;22.00;99.90;;;;;;5043072;28;20174;-94
2021/07/29 09:53:38;;;;;;;8.90;2.85;;;21.80;99.90;;;;;;5042375;28;20171;-94
2021/07/29 09:56:12;;;;;;;4.47;1.73;;;21.60;99.90;;;;;;5042444;28;20726;-94
2021/07/29 09:58:41;;;;;;;7.93;2.92;;;21.80;99.90;;;;;;5040295;28;20170;-94
2021/07/29 10:01:08;;;;;;;6.57;2.25;;;22.50;99.90;;;;;;5039667;28;20575;-93
2021/07/29 10:03:42;;;;;;;4.22;1.60;;;22.70;99.90;;;;;;5039370;28;20598;-93
2021/07/29 10:06:15;;;;;;;5.35;1.30;;;23.00;99.90;;;;;;5039138;28;20195;-94
2021/07/29 10:09:01;;;;;;;8.88;1.55;;;23.30;99.90;;;;;;5041604;28;20189;-94
2021/07/29 10:11:32;;;;;;;4.85;1.52;;;22.80;99.90;;;;;;5043172;28;20174;-94
2021/07/29 10:13:58;;;;;;;5.05;1.77;;;22.60;99.90;;;;;;5041938;28;20201;-94
2021/07/29 10:16:48;;;;;;;7.93;1.50;;;22.30;99.90;;;;;;5043559;28;20191;-94
2021/07/29 10:19:17;;;;;;;6.53;1.52;;;22.60;99.90;;;;;;5043356;28;20570;-94
2021/07/29 10:21:44;;;;;;;3.33;1.38;;;22.60;99.90;;;;;;5043168;28;20167;-94
2021/07/29 10:24:13;;;;;;;4.22;1.23;;;22.40;99.90;;;;;;5039926;28;20207;-93
2021/07/29 10:27:01;;;;;;;3.95;1.27;;;22.30;99.90;;;;;;5040374;28;20195;-92
2021/07/29 10:29:29;;;;;;;4.07;1.33;;;22.20;99.90;;;;;;5040158;28;20231;-93
2021/07/29 10:32:02;;;;;;;2.85;1.67;;;22.30;99.90;;;;;;5040182;28;20190;-93
2021/07/29 10:34:30;;;;;;;7.63;1.73;;;22.60;99.90;;;;;;5040972;28;20278;-93
2021/07/29 10:37:06;;;;;;;3.80;1.58;;;23.00;99.90;;;;;;5040227;28;20202;-95
2021/07/29 10:39:52;;;;;;;6.20;1.42;;;23.20;99.90;;;;;;5040043;28;20175;-91
2021/07/29 10:42:27;;;;;;;5.22;1.60;;;23.00;99.90;;;;;;5057221;28;20525;-95
2021/07/29 10:44:53;;;;;;;4.88;1.45;;;23.10;99.90;;;;;;5042515;28;20235;-94
2021/07/29 10:47:49;;;;;;;9.63;1.40;;;23.20;99.90;;;;;;5040518;28;20167;-91
2021/07/29 10:50:15;;;;;;;3.72;1.67;;;23.60;99.90;;;;;;5027810;28;20179;-92
2021/07/29 10:52:44;;;;;;;7.47;1.92;;;23.60;99.90;;;;;;5039217;28;20217;-86
2021/07/29 10:55:10;;;;;;;12.00;2.25;;;23.40;99.90;;;;;;5037735;28;20604;-88
2021/07/29 10:57:36;;;;;;;3.83;1.60;;;22.80;99.90;;;;;;5038169;28;20202;-87
2021/07/29 11:00:02;;;;;;;2.60;1.58;;;22.80;99.90;;;;;;5038011;28;20267;-88
2021/07/29 11:02:42;;;;;;;6.35;1.65;;;23.00;99.90;;;;;;5037979;28;20198;-87
2021/07/29 11:05:09;;;;;;;3.30;1.52;;;22.80;99.90;;;;;;5037158;28;20202;-85
2021/07/29 11:07:40;;;;;;;5.50;1.48;;;22.70;99.90;;;;;;5037098;28;20178;-86
2021/07/29 11:10:09;;;;;;;6.13;2.30;;;22.70;99.90;;;;;;5037389;28;20167;-89
2021/07/29 11:12:37;;;;;;;5.32;1.45;;;22.60;99.90;;;;;;5036974;28;20163;-87
2021/07/29 11:15:04;;;;;;;9.82;1.63;;;22.60;99.90;;;;;;5037638;28;20183;-89
2021/07/29 11:17:30;;;;;;;3.28;1.23;;;22.80;99.90;;;;;;5037630;28;20167;-89
2021/07/29 11:19:56;;;;;;;4.38;1.85;;;22.80;99.90;;;;;;5037184;28;20167;-89
2021/07/29 11:22:21;;;;;;;3.95;1.70;;;22.60;99.90;;;;;;5036933;28;20163;-89
2021/07/29 11:24:47;;;;;;;7.22;2.05;;;22.40;99.90;;;;;;5037081;28;20203;-86
2021/07/29 11:27:13;;;;;;;4.30;1.80;;;22.30;99.90;;;;;;5037508;28;20611;-93
2021/07/29 11:29:59;;;;;;;5.63;1.50;;;22.40;99.90;;;;;;5036922;28;20214;-88
2021/07/29 11:32:33;;;;;;;4.18;1.15;;;22.60;99.90;;;;;;5037600;28;20179;-90
2021/07/29 11:34:59;;;;;;;4.50;1.67;;;23.00;99.90;;;;;;5038180;28;20209;-88
2021/07/29 11:37:45;;;;;;;7.07;1.38;;;23.20;99.90;;;;;;5037673;28;20171;-88
2021/07/29 11:40:22;;;;;;;9.60;1.70;;;23.40;99.90;;;;;;5037838;28;20566;-94
2021/07/29 11:42:48;;;;;;;11.10;1.58;;;23.70;99.90;;;;;;5037407;28;20181;-93
2021/07/29 11:45:21;;;;;;;6.97;1.92;;;23.80;99.90;;;;;;5037225;28;20183;-87
2021/07/29 11:47:47;;;;;;;7.78;1.42;;;23.50;99.90;;;;;;5037478;28;20171;-88
2021/07/29 11:50:13;;;;;;;3.90;1.45;;;23.30;99.90;;;;;;5044354;28;20155;-88
2021/07/29 11:52:52;;;;;;;3.88;1.60;;;23.40;99.90;;;;;;5037577;28;20206;-87
2021/07/29 11:55:20;;;;;;;3.90;1.50;;;23.30;99.90;;;;;;5037603;28;20199;-89
2021/07/29 11:57:46;;;;;;;3.17;0.82;;;23.40;99.90;;;;;;5042653;28;20632;-88
2021/07/29 12:00:26;;;;;;;6.88;1.50;;;23.60;99.90;;;;;;5041566;28;20183;-88
2021/07/29 12:02:53;;;;;;;9.38;1.55;;;23.50;99.90;;;;;;5041948;28;20289;-91
2021/07/29 12:05:20;;;;;;;10.27;1.70;;;23.30;99.90;;;;;;5058798;28;20199;-88
2021/07/29 12:07:47;;;;;;;2.38;1.27;;;23.20;99.90;;;;;;5058801;28;20163;-89
2021/07/29 12:10:17;;;;;;;6.18;1.50;;;23.20;99.90;;;;;;5039402;28;20175;-87
2021/07/29 12:12:42;;;;;;;5.03;1.60;;;23.00;99.90;;;;;;5037720;28;20199;-88
2021/07/29 12:15:12;;;;;;;8.00;1.52;;;23.00;99.90;;;;;;5037619;28;20187;-88
2021/07/29 12:17:38;;;;;;;3.30;1.38;;;22.90;99.90;;;;;;5037856;28;20178;-87
2021/07/29 12:20:05;;;;;;;3.80;1.80;;;23.00;99.90;;;;;;5020982;28;20175;-88
2021/07/29 12:22:34;;;;;;;2.78;1.40;;;23.00;99.90;;;;;;5036432;28;20171;-88
2021/07/29 12:25:02;;;;;;;6.18;1.60;;;22.90;99.90;;;;;;5037400;28;20233;-88
2021/07/29 12:27:45;;;;;;;10.05;1.85;;;23.00;99.90;;;;;;5037085;28;20171;-88
2021/07/29 12:30:38;;;;;;;5.53;1.98;;;22.90;99.90;;;;;;5037208;28;20179;-88
2021/07/29 12:33:10;;;;;;;6.53;1.65;;;23.00;99.90;;;;;;5037162;28;20167;-87
2021/07/29 12:35:37;;;;;;;6.38;1.70;;;23.30;99.90;;;;;;5037433;28;20243;-84
2021/07/29 12:38:03;;;;;;;5.97;1.50;;;23.20;99.90;;;;;;5054270;28;20166;-85
2021/07/29 12:40:31;;;;;;;9.23;1.90;;;23.20;99.90;;;;;;5035761;28;20705;-85
2021/07/29 12:43:19;;;;;;;3.50;1.88;;;23.40;99.90;;;;;;5036017;28;20282;-85
2021/07/29 12:45:50;;;;;;;5.05;1.50;;;23.80;99.90;;;;;;5053489;28;20222;-87
2021/07/29 12:48:16;;;;;;;4.95;1.95;;;23.90;99.90;;;;;;5035639;28;20237;-86
2021/07/29 12:50:41;;;;;;;5.38;1.35;;;23.90;99.90;;;;;;5035788;28;20167;-87
2021/07/29 12:53:12;;;;;;;4.25;1.60;;;23.90;99.90;;;;;;5035998;28;20223;-86
2021/07/29 12:55:39;;;;;;;6.18;1.38;;;23.60;99.90;;;;;;5036086;28;20187;-87